createdAt,value
2017-11-20T00:00:50.995Z,78.20
2017-11-20T00:03:20.959Z,78.00
2017-11-20T00:05:50.878Z,78.30
2017-11-20T00:08:21.008Z,78.30
2017-11-20T00:10:49.327Z,78.30
2017-11-20T00:13:17.673Z,78.00
2017-11-20T00:15:45.660Z,77.80
2017-11-20T00:18:14.012Z,77.80
2017-11-20T00:20:42.332Z,77.80
2017-11-20T00:23:10.654Z,77.80
2017-11-20T00:25:39.003Z,78.20
2017-11-20T00:28:08.093Z,78.20
2017-11-20T00:30:36.419Z,78.20
2017-11-20T00:33:04.973Z,77.90
2017-11-20T00:35:34.065Z,78.50
2017-11-20T00:38:03.147Z,78.20
2017-11-20T00:40:32.238Z,78.30
2017-11-20T00:43:01.337Z,78.30
2017-11-20T00:45:30.480Z,77.80
2017-11-20T00:47:58.796Z,77.90
2017-11-20T00:50:27.323Z,77.70
2017-11-20T00:52:55.671Z,77.70
2017-11-20T00:55:24.766Z,77.90
2017-11-20T00:57:54.063Z,77.60
2017-11-20T01:00:23.280Z,77.70
2017-11-20T01:02:51.608Z,77.70
2017-11-20T01:05:19.935Z,77.80
2017-11-20T01:07:48.426Z,77.60
2017-11-20T01:10:16.747Z,77.30
2017-11-20T01:12:45.072Z,77.50
2017-11-20T01:15:13.407Z,77.60
2017-11-20T01:17:41.751Z,77.60
2017-11-20T01:20:10.260Z,78.30
2017-11-20T01:22:38.628Z,78.00
2017-11-20T01:25:06.948Z,77.90
2017-11-20T01:27:35.268Z,77.90
2017-11-20T01:30:03.273Z,77.70
2017-11-20T01:32:32.360Z,77.80
2017-11-20T01:35:00.685Z,77.80
2017-11-20T01:37:29.015Z,77.90
2017-11-20T01:39:57.336Z,78.00
2017-11-20T01:42:25.713Z,77.80
2017-11-20T01:44:54.041Z,77.50
2017-11-20T01:47:22.453Z,77.70
2017-11-20T01:49:51.523Z,77.80
2017-11-20T01:52:20.613Z,77.80
2017-11-20T01:54:49.793Z,77.80
2017-11-20T01:57:17.848Z,77.90
2017-11-20T01:59:46.362Z,77.90
2017-11-20T02:02:15.847Z,77.80
2017-11-20T02:04:44.987Z,77.70
2017-11-20T02:07:13.321Z,77.90
2017-11-20T02:09:41.316Z,78.20
2017-11-20T02:12:10.165Z,78.10
2017-11-20T02:14:38.725Z,78.10
2017-11-20T02:17:07.043Z,78.10
2017-11-20T02:19:34.717Z,77.80
2017-11-20T02:22:03.165Z,77.90
2017-11-20T02:24:33.776Z,77.70
2017-11-20T02:27:01.434Z,77.70
2017-11-20T02:29:29.100Z,77.50
2017-11-20T02:31:57.752Z,77.10
2017-11-20T02:34:25.748Z,77.40
2017-11-20T02:36:54.466Z,77.30
2017-11-20T02:39:22.654Z,77.50
2017-11-20T02:41:51.743Z,77.30
2017-11-20T02:44:19.465Z,77.30
2017-11-20T02:46:47.119Z,77.60
2017-11-20T02:49:15.113Z,77.70
2017-11-20T02:51:43.767Z,76.80
2017-11-20T02:54:11.762Z,77.20
2017-11-20T02:56:39.429Z,77.20
2017-11-20T02:59:07.432Z,77.10
2017-11-20T03:01:36.195Z,77.00
2017-11-20T03:04:04.180Z,77.00
2017-11-20T03:06:33.284Z,77.20
2017-11-20T03:09:02.039Z,77.00
2017-11-20T03:11:30.358Z,77.00
2017-11-20T03:13:58.691Z,77.20
2017-11-20T03:16:27.020Z,77.00
2017-11-20T03:18:55.339Z,77.20
2017-11-20T03:21:23.018Z,77.30
2017-11-20T03:23:51.342Z,77.20
2017-11-20T03:26:19.787Z,78.00
2017-11-20T03:28:49.968Z,77.30
2017-11-20T03:31:18.587Z,77.30
2017-11-20T03:33:47.692Z,77.40
2017-11-20T03:36:16.653Z,77.20
2017-11-20T03:38:44.977Z,77.20
2017-11-20T03:41:13.451Z,77.50
2017-11-20T03:43:41.111Z,77.20
2017-11-20T03:46:08.768Z,77.50
2017-11-20T03:48:36.816Z,77.10
2017-11-20T03:51:04.851Z,77.30
2017-11-20T03:53:33.175Z,77.10
2017-11-20T03:56:02.280Z,77.20
2017-11-20T03:58:30.614Z,77.10
2017-11-20T04:00:58.945Z,76.90
2017-11-20T04:03:27.279Z,76.90
2017-11-20T04:05:55.623Z,76.90
2017-11-20T04:08:23.947Z,77.10
2017-11-20T04:10:53.043Z,76.80
2017-11-20T04:13:22.136Z,76.70
2017-11-20T04:15:50.593Z,76.50
2017-11-20T04:18:19.625Z,76.30
2017-11-20T04:20:47.952Z,76.50
2017-11-20T04:23:16.299Z,76.40
2017-11-20T04:25:44.634Z,76.10
2017-11-20T04:28:12.958Z,76.70
2017-11-20T04:30:40.969Z,76.50
2017-11-20T04:33:08.952Z,76.30
2017-11-20T04:35:38.038Z,76.30
2017-11-20T04:38:06.390Z,76.20
2017-11-20T04:40:34.718Z,75.90
2017-11-20T04:43:03.039Z,76.20
2017-11-20T04:45:31.061Z,76.10
2017-11-20T04:48:00.155Z,76.10
2017-11-20T04:50:28.584Z,76.40
2017-11-20T04:52:56.936Z,76.40
2017-11-20T04:55:24.959Z,76.30
2017-11-20T04:57:53.293Z,76.60
2017-11-20T05:00:21.147Z,76.30
2017-11-20T05:02:49.472Z,75.80
2017-11-20T05:05:17.855Z,76.00
2017-11-20T05:07:46.198Z,75.70
2017-11-20T05:10:14.523Z,75.00
2017-11-20T05:12:43.816Z,75.70
2017-11-20T05:15:12.369Z,75.60
2017-11-20T05:17:40.692Z,75.80
2017-11-20T05:20:09.011Z,75.90
2017-11-20T05:22:37.348Z,76.00
2017-11-20T05:25:05.664Z,75.80
2017-11-20T05:27:33.984Z,75.60
2017-11-20T05:30:03.115Z,75.80
2017-11-20T05:32:31.434Z,75.80
2017-11-20T05:34:59.747Z,75.90
2017-11-20T05:37:28.086Z,75.80
2017-11-20T05:39:56.402Z,75.70
2017-11-20T05:42:24.735Z,75.60
2017-11-20T05:44:53.058Z,75.50
2017-11-20T05:47:21.385Z,75.50
2017-11-20T05:49:49.728Z,75.70
2017-11-20T05:52:18.043Z,75.50
2017-11-20T05:54:46.367Z,75.70
2017-11-20T05:57:14.724Z,75.70
2017-11-20T05:59:43.835Z,75.80
2017-11-20T06:02:12.154Z,75.80
2017-11-20T06:04:40.506Z,76.00
2017-11-20T06:07:08.835Z,75.80
2017-11-20T06:09:37.171Z,75.70
2017-11-20T06:12:05.501Z,75.90
2017-11-20T06:14:34.820Z,75.60
2017-11-20T06:17:03.150Z,75.60
2017-11-20T06:19:31.477Z,75.30
2017-11-20T06:21:59.795Z,75.30
2017-11-20T06:24:28.138Z,75.20
2017-11-20T06:26:56.458Z,75.60
2017-11-20T06:29:24.778Z,75.60
2017-11-20T06:31:54.663Z,75.50
2017-11-20T06:34:23.183Z,75.70
2017-11-20T06:36:51.510Z,75.60
2017-11-20T06:39:20.438Z,75.60
2017-11-20T06:41:49.427Z,75.50
2017-11-20T06:44:17.779Z,75.60
2017-11-20T06:46:46.117Z,75.20
2017-11-20T06:49:14.644Z,75.40
2017-11-20T06:51:42.967Z,75.20
2017-11-20T06:54:11.300Z,74.80
2017-11-20T06:56:39.623Z,75.10
2017-11-20T06:59:08.149Z,75.10
2017-11-20T07:01:36.488Z,75.40
2017-11-20T07:04:04.804Z,75.50
2017-11-20T07:06:33.142Z,75.40
2017-11-20T07:09:01.482Z,75.90
2017-11-20T07:11:29.802Z,75.60
2017-11-20T07:13:58.128Z,75.80
2017-11-20T07:16:26.495Z,75.50
2017-11-20T07:18:54.815Z,75.50
2017-11-20T07:21:23.132Z,75.30
2017-11-20T07:23:51.471Z,74.70
2017-11-20T07:26:30.952Z,75.30
2017-11-20T07:29:10.501Z,75.40
2017-11-20T07:31:38.819Z,75.70
2017-11-20T07:34:18.685Z,75.70
2017-11-20T07:36:58.235Z,75.60
2017-11-20T07:39:33.694Z,75.80
2017-11-20T07:42:02.011Z,75.80
2017-11-20T07:44:31.127Z,75.60
2017-11-20T07:46:59.451Z,75.60
2017-11-20T07:49:27.776Z,76.10
2017-11-20T07:51:56.123Z,75.90
2017-11-20T07:54:25.208Z,75.80
2017-11-20T07:56:54.286Z,76.10
2017-11-20T07:59:22.639Z,75.90
2017-11-20T08:01:51.931Z,75.80
2017-11-20T08:04:20.261Z,75.90
2017-11-20T08:06:49.364Z,75.90
2017-11-20T08:09:18.451Z,75.80
2017-11-20T08:11:48.542Z,75.60
2017-11-20T08:14:16.864Z,75.60
2017-11-20T08:16:45.187Z,75.60
2017-11-20T08:19:14.126Z,75.20
2017-11-20T08:21:43.473Z,75.60
2017-11-20T08:24:11.786Z,75.40
2017-11-20T08:26:40.988Z,75.80
2017-11-20T08:29:10.281Z,76.00
2017-11-20T08:31:39.780Z,76.00
2017-11-20T08:34:08.135Z,75.70
2017-11-20T08:36:36.651Z,75.40
2017-11-20T08:39:05.093Z,75.70
2017-11-20T08:41:34.416Z,75.60
2017-11-20T08:44:02.735Z,75.60
2017-11-20T08:46:31.071Z,75.60
2017-11-20T08:48:59.396Z,75.60
2017-11-20T08:51:27.761Z,76.10
2017-11-20T08:53:56.967Z,75.90
2017-11-20T08:56:25.825Z,75.90
2017-11-20T08:58:54.912Z,75.60
2017-11-20T09:01:23.255Z,75.70
2017-11-20T09:03:51.586Z,76.80
2017-11-20T09:06:20.335Z,76.00
2017-11-20T09:08:48.348Z,75.90
2017-11-20T09:11:16.662Z,75.90
2017-11-20T09:13:45.020Z,76.00
2017-11-20T09:16:13.342Z,76.10
2017-11-20T09:18:41.665Z,76.20
2017-11-20T09:21:09.671Z,76.10
2017-11-20T09:23:38.006Z,75.70
2017-11-20T09:26:05.995Z,75.70
2017-11-20T09:28:34.350Z,75.90
2017-11-20T09:31:02.681Z,75.90
2017-11-20T09:33:31.202Z,75.80
2017-11-20T09:35:59.543Z,75.70
2017-11-20T09:38:27.899Z,75.80
2017-11-20T09:40:56.992Z,75.70
2017-11-20T09:43:25.926Z,75.80
2017-11-20T09:45:55.230Z,75.30
2017-11-20T09:48:24.863Z,75.10
2017-11-20T09:50:52.550Z,75.10
2017-11-20T09:53:20.215Z,75.50
2017-11-20T09:55:48.214Z,75.70
2017-11-20T09:58:15.883Z,75.60
2017-11-20T10:00:43.740Z,75.60
2017-11-20T10:03:11.414Z,75.80
2017-11-20T10:05:39.851Z,75.70
2017-11-20T10:08:07.526Z,75.70
2017-11-20T10:10:35.665Z,75.60
2017-11-20T10:13:03.979Z,75.60
2017-11-20T10:15:31.645Z,75.40
2017-11-20T10:17:59.647Z,75.50
2017-11-20T10:20:28.066Z,75.40
2017-11-20T10:22:56.064Z,75.40
2017-11-20T10:25:23.751Z,75.60
2017-11-20T10:27:52.521Z,75.70
2017-11-20T10:30:20.379Z,75.70
2017-11-20T10:32:48.051Z,75.40
2017-11-20T10:35:15.711Z,75.50
2017-11-20T10:37:43.478Z,76.10
2017-11-20T10:40:11.137Z,74.80
2017-11-20T10:42:38.851Z,75.10
2017-11-20T10:45:06.544Z,74.80
2017-11-20T10:47:34.458Z,75.00
2017-11-20T10:50:02.881Z,75.50
2017-11-20T10:52:31.592Z,75.50
2017-11-20T10:54:59.247Z,75.40
2017-11-20T10:57:26.911Z,75.40
2017-11-20T10:59:54.599Z,75.50
2017-11-20T11:02:23.994Z,75.50
2017-11-20T11:04:52.754Z,75.50
2017-11-20T11:07:20.771Z,75.40
2017-11-20T11:09:48.437Z,75.50
2017-11-20T11:12:17.434Z,75.40
2017-11-20T11:14:45.111Z,75.50
2017-11-20T11:17:12.971Z,75.40
2017-11-20T11:19:40.634Z,75.20
2017-11-20T11:22:09.103Z,75.40
2017-11-20T11:24:38.034Z,75.70
2017-11-20T11:27:05.699Z,75.60
2017-11-20T11:29:33.386Z,75.70
2017-11-20T11:32:03.324Z,75.50
2017-11-20T11:34:30.987Z,75.50
2017-11-20T11:36:59.352Z,75.00
2017-11-20T11:39:27.014Z,75.50
2017-11-20T11:41:55.722Z,75.40
2017-11-20T11:44:23.502Z,75.40
2017-11-20T11:46:51.171Z,76.10
2017-11-20T11:49:18.839Z,75.70
2017-11-20T11:51:47.491Z,75.50
2017-11-20T11:54:15.157Z,75.30
2017-11-20T11:56:43.023Z,75.50
2017-11-20T11:59:10.719Z,75.50
2017-11-20T12:01:39.538Z,75.20
2017-11-20T12:04:07.968Z,75.70
2017-11-20T12:06:35.734Z,75.70
2017-11-20T12:09:03.406Z,75.10
2017-11-20T12:11:31.262Z,75.20
2017-11-20T12:13:58.934Z,75.60
2017-11-20T12:16:27.409Z,75.50
2017-11-20T12:18:55.243Z,75.70
2017-11-20T12:21:22.992Z,75.40
2017-11-20T12:23:50.651Z,75.30
2017-11-20T12:26:18.510Z,75.40
2017-11-20T12:28:46.194Z,75.50
2017-11-20T12:31:13.859Z,75.70
2017-11-20T12:33:41.851Z,75.40
2017-11-20T12:36:09.539Z,75.60
2017-11-20T12:38:37.202Z,75.10
2017-11-20T12:41:05.124Z,74.40
2017-11-20T12:43:32.792Z,75.00
2017-11-20T12:46:00.658Z,75.10
2017-11-20T12:48:28.651Z,75.40
2017-11-20T12:50:57.266Z,74.80
2017-11-20T12:53:26.383Z,75.10
2017-11-20T12:55:54.046Z,75.10
2017-11-20T12:58:21.910Z,75.20
2017-11-20T13:00:49.570Z,75.40
2017-11-20T13:03:17.228Z,75.40
2017-11-20T13:05:44.910Z,75.40
2017-11-20T13:08:12.583Z,75.50
2017-11-20T13:10:40.246Z,75.70
2017-11-20T13:13:08.259Z,75.40
2017-11-20T13:15:37.019Z,75.60
2017-11-20T13:18:04.684Z,75.60
2017-11-20T13:20:32.476Z,75.90
2017-11-20T13:23:00.899Z,75.90
2017-11-20T13:25:28.559Z,75.90
2017-11-20T13:27:56.359Z,76.10
2017-11-20T13:30:24.017Z,75.90
2017-11-20T13:32:51.673Z,75.50
2017-11-20T13:35:19.346Z,75.40
2017-11-20T13:37:47.007Z,75.50
2017-11-20T13:40:14.687Z,75.50
2017-11-20T13:42:43.142Z,75.30
2017-11-20T13:45:10.858Z,75.40
2017-11-20T13:47:38.519Z,75.60
2017-11-20T13:50:06.207Z,75.60
2017-11-20T13:52:33.868Z,75.60
2017-11-20T13:55:01.539Z,75.70
2017-11-20T13:57:29.231Z,75.60
2017-11-20T13:59:58.340Z,75.40
2017-11-20T14:02:26.536Z,75.30
2017-11-20T14:04:54.206Z,75.70
2017-11-20T14:07:21.872Z,75.60
2017-11-20T14:09:49.530Z,75.60
2017-11-20T14:12:17.410Z,75.30
2017-11-20T14:14:44.887Z,75.20
2017-11-20T14:17:12.358Z,75.00
2017-11-20T14:19:40.735Z,75.00
2017-11-20T14:22:09.165Z,75.10
2017-11-20T14:24:36.823Z,75.00
2017-11-20T14:27:04.499Z,75.10
2017-11-20T14:29:32.163Z,75.20
2017-11-20T14:32:00.155Z,75.30
2017-11-20T14:34:27.942Z,75.00
2017-11-20T14:36:57.172Z,75.00
2017-11-20T14:39:24.866Z,75.00
2017-11-20T14:41:53.342Z,75.00
2017-11-20T14:44:21.007Z,74.90
2017-11-20T14:46:52.135Z,75.20
2017-11-20T14:49:19.827Z,74.60
2017-11-20T14:51:50.954Z,74.80
2017-11-20T14:54:39.274Z,74.90
2017-11-20T14:57:07.134Z,74.90
2017-11-20T14:59:34.792Z,75.10
2017-11-20T15:02:02.470Z,75.30
2017-11-20T15:04:30.125Z,76.00
2017-11-20T15:06:57.788Z,75.40
2017-11-20T15:09:25.475Z,75.40
2017-11-20T15:11:52.954Z,75.60
2017-11-20T15:14:20.827Z,75.50
2017-11-20T15:16:49.481Z,75.30
2017-11-20T15:19:17.144Z,75.30
2017-11-20T15:21:44.807Z,75.30
2017-11-20T15:24:12.479Z,75.00
2017-11-20T15:26:40.147Z,75.00
2017-11-20T15:29:08.575Z,75.30
2017-11-20T15:31:36.795Z,75.40
2017-11-20T15:34:04.524Z,75.10
2017-11-20T15:36:32.187Z,75.10
2017-11-20T15:39:00.194Z,75.40
2017-11-20T15:41:28.619Z,75.20
2017-11-20T15:43:56.939Z,75.20
2017-11-20T15:46:25.301Z,75.10
2017-11-20T15:48:53.820Z,75.50
2017-11-20T15:51:22.911Z,75.30
2017-11-20T15:53:52.010Z,75.20
2017-11-20T15:56:20.435Z,75.30
2017-11-20T15:58:50.603Z,75.30
2017-11-20T16:01:19.916Z,76.00
2017-11-20T16:03:48.243Z,75.60
2017-11-20T16:06:16.571Z,75.40
2017-11-20T16:08:44.915Z,75.40
2017-11-20T16:11:13.230Z,75.30
2017-11-20T16:13:41.763Z,75.20
2017-11-20T16:16:10.133Z,75.40
2017-11-20T16:18:38.675Z,75.50
2017-11-20T16:21:07.003Z,75.30
2017-11-20T16:23:35.340Z,75.20
2017-11-20T16:26:03.012Z,75.20
2017-11-20T16:28:31.334Z,75.30
2017-11-20T16:31:00.131Z,75.60
2017-11-20T16:33:29.226Z,75.70
2017-11-20T16:35:58.517Z,76.20
2017-11-20T16:38:27.804Z,76.00
2017-11-20T16:40:56.420Z,75.90
2017-11-20T16:43:25.508Z,75.70
2017-11-20T16:45:54.296Z,75.60
2017-11-20T16:48:22.683Z,75.50
2017-11-20T16:50:51.014Z,75.70
2017-11-20T16:53:20.325Z,75.60
2017-11-20T16:55:48.651Z,75.40
2017-11-20T16:58:28.212Z,75.50
2017-11-20T17:00:56.216Z,75.70
2017-11-20T17:03:31.963Z,75.90
2017-11-20T17:06:00.415Z,76.00
2017-11-20T17:08:28.739Z,75.50
2017-11-20T17:10:58.732Z,76.00
2017-11-20T17:13:28.177Z,76.00
2017-11-20T17:15:56.666Z,76.00
2017-11-20T17:18:25.104Z,76.20
2017-11-20T17:20:54.199Z,76.10
2017-11-20T17:23:23.494Z,75.80
2017-11-20T17:25:52.615Z,76.40
2017-11-20T17:28:20.958Z,75.70
2017-11-20T17:30:49.487Z,75.60
2017-11-20T17:33:18.031Z,75.20
2017-11-20T17:35:46.943Z,75.20
2017-11-20T17:38:15.266Z,75.20
2017-11-20T17:40:43.619Z,75.00
2017-11-20T17:43:11.943Z,75.00
2017-11-20T17:45:40.274Z,75.00
2017-11-20T17:48:08.619Z,74.60
2017-11-20T17:50:37.742Z,75.10
2017-11-20T17:53:07.015Z,75.00
2017-11-20T17:55:36.133Z,75.00
2017-11-20T17:58:04.470Z,75.00
2017-11-20T18:00:32.799Z,76.00
2017-11-20T18:03:01.143Z,75.20
2017-11-20T18:05:30.238Z,74.70
2017-11-20T18:07:59.816Z,75.10
2017-11-20T18:10:28.161Z,75.00
2017-11-20T18:12:58.261Z,74.90
2017-11-20T18:15:27.248Z,74.90
2017-11-20T18:17:56.414Z,74.90
2017-11-20T18:20:24.848Z,75.20
2017-11-20T18:22:53.176Z,75.20
2017-11-20T18:25:21.723Z,75.10
2017-11-20T18:27:49.720Z,75.40
2017-11-20T18:30:18.802Z,75.60
2017-11-20T18:32:46.635Z,75.60
2017-11-20T18:35:14.956Z,76.10
2017-11-20T18:37:44.040Z,76.40
2017-11-20T18:40:12.591Z,76.40
2017-11-20T18:42:40.928Z,76.40
2017-11-20T18:45:09.247Z,76.50
2017-11-20T18:47:37.597Z,76.70
2017-11-20T18:50:05.922Z,76.70
2017-11-20T18:52:34.266Z,76.70
2017-11-20T18:55:02.631Z,77.00
2017-11-20T18:57:30.955Z,77.20
2017-11-20T19:00:10.509Z,77.40
2017-11-20T19:05:57.067Z,77.20
2017-11-20T19:08:36.612Z,77.30
2017-11-20T19:11:04.295Z,77.40
2017-11-20T19:13:32.397Z,77.70
2017-11-20T19:16:01.505Z,78.20
2017-11-20T19:18:29.555Z,78.30
2017-11-20T19:20:58.494Z,78.30
2017-11-20T19:23:26.163Z,78.80
2017-11-20T19:25:54.515Z,78.30
2017-11-20T19:28:22.896Z,78.50
2017-11-20T19:30:51.218Z,78.70
2017-11-20T19:33:19.341Z,78.80
2017-11-20T19:35:48.095Z,78.20
2017-11-20T19:38:16.140Z,78.20
2017-11-20T19:40:43.816Z,77.70
2017-11-20T19:43:12.149Z,77.70
2017-11-20T19:45:40.275Z,78.00
2017-11-20T19:48:08.656Z,77.60
2017-11-20T19:50:36.977Z,77.50
2017-11-20T19:53:05.304Z,78.00
2017-11-20T19:55:33.856Z,78.10
2017-11-20T19:58:02.963Z,78.40
2017-11-20T20:00:31.290Z,78.40
2017-11-20T20:02:59.705Z,78.50
2017-11-20T20:05:28.837Z,78.40
2017-11-20T20:07:57.170Z,79.30
2017-11-20T20:10:27.012Z,79.40
2017-11-20T20:12:55.374Z,79.40
2017-11-20T20:15:34.933Z,79.60
2017-11-20T20:18:03.276Z,80.20
2017-11-20T20:20:31.623Z,79.60
2017-11-20T20:23:01.452Z,79.70
2017-11-20T20:25:30.920Z,80.20
2017-11-20T20:28:00.505Z,80.20
2017-11-20T20:30:29.833Z,80.50
2017-11-20T20:32:59.226Z,80.50
2017-11-20T20:35:28.328Z,80.20
2017-11-20T20:37:56.944Z,80.20
2017-11-20T20:40:25.358Z,79.80
2017-11-20T20:42:53.733Z,80.60
2017-11-20T20:45:22.864Z,80.70
2017-11-20T20:47:51.290Z,80.00
2017-11-20T20:50:19.639Z,80.20
2017-11-20T20:52:48.066Z,80.50
2017-11-20T20:55:16.412Z,80.10
2017-11-20T20:57:45.040Z,80.50
2017-11-20T21:00:13.463Z,81.30
2017-11-20T21:02:41.790Z,81.10
2017-11-20T21:05:10.333Z,81.40
2017-11-20T21:07:38.897Z,81.30
2017-11-20T21:10:12.817Z,80.60
2017-11-20T21:12:41.143Z,80.80
2017-11-20T21:15:09.684Z,82.00
2017-11-20T21:17:38.842Z,81.20
2017-11-20T21:20:07.955Z,80.70
2017-11-20T21:22:36.487Z,80.80
2017-11-20T21:25:04.840Z,80.80
2017-11-20T21:27:33.165Z,80.90
2017-11-20T21:30:02.278Z,81.00
2017-11-20T21:32:30.619Z,80.80
2017-11-20T21:34:58.943Z,81.10
2017-11-20T21:37:27.266Z,80.30
2017-11-20T21:39:55.636Z,81.20
2017-11-20T21:42:23.956Z,82.20
2017-11-20T21:44:53.043Z,81.20
2017-11-20T21:47:22.144Z,81.60
2017-11-20T21:49:51.268Z,81.20
2017-11-20T21:52:19.636Z,81.20
2017-11-20T21:57:44.894Z,82.40
2017-11-20T22:00:13.647Z,81.40
2017-11-20T22:02:41.980Z,81.40
2017-11-20T22:05:10.543Z,82.10
2017-11-20T22:07:39.304Z,81.10
2017-11-20T22:10:07.630Z,81.10
2017-11-20T22:12:39.634Z,81.30
2017-11-20T22:15:07.800Z,81.10
2017-11-20T22:17:36.327Z,81.80
2017-11-20T22:20:04.407Z,81.60
2017-11-20T22:22:32.755Z,80.90
2017-11-20T22:25:01.511Z,81.00
2017-11-20T22:27:30.301Z,80.90
2017-11-20T22:29:59.202Z,81.30
2017-11-20T22:32:27.963Z,80.90
2017-11-20T22:34:56.283Z,81.30
2017-11-20T22:37:25.370Z,81.30
2017-11-20T22:39:54.501Z,81.20
2017-11-20T22:42:22.824Z,81.30
2017-11-20T22:44:51.143Z,81.40
2017-11-20T22:47:19.571Z,81.20
2017-11-20T22:49:47.571Z,81.60
2017-11-20T22:52:15.763Z,81.70
2017-11-20T22:54:44.094Z,82.20
2017-11-20T22:57:12.422Z,82.60
2017-11-20T22:59:40.754Z,82.00
2017-11-20T23:02:09.423Z,81.60
2017-11-20T23:04:37.743Z,81.80
2017-11-20T23:07:06.503Z,82.00
2017-11-20T23:09:34.503Z,82.00
2017-11-20T23:12:02.935Z,82.00
2017-11-20T23:14:30.612Z,82.00
2017-11-20T23:16:58.932Z,82.50
2017-11-20T23:19:27.298Z,82.20
2017-11-20T23:21:55.658Z,83.70
2017-11-20T23:24:24.742Z,82.00
2017-11-20T23:26:53.069Z,82.00
2017-11-20T23:29:21.415Z,82.30
2017-11-20T23:31:50.505Z,82.20
2017-11-20T23:34:19.823Z,83.00
2017-11-20T23:36:48.151Z,82.20
2017-11-20T23:39:16.687Z,82.60
2017-11-20T23:41:45.004Z,82.50
2017-11-20T23:44:13.345Z,82.50
2017-11-20T23:46:41.667Z,82.20
2017-11-20T23:49:10.021Z,82.50
2017-11-20T23:51:38.546Z,82.40
2017-11-20T23:54:06.878Z,82.30
2017-11-20T23:56:35.211Z,81.70
2017-11-20T23:59:04.297Z,81.60
